createdAt,value
2024-05-09T00:00:15.520Z,16.36
2024-05-09T00:01:20.083Z,16.32
2024-05-09T00:02:21.982Z,16.32
2024-05-09T00:03:23.768Z,16.33
2024-05-09T00:04:25.797Z,16.37
2024-05-09T00:05:27.584Z,16.36
2024-05-09T00:06:29.336Z,16.42
2024-05-09T00:07:30.994Z,16.49
2024-05-09T00:08:32.805Z,16.55
2024-05-09T00:09:34.690Z,16.61
2024-05-09T00:10:38.863Z,16.56
2024-05-09T00:11:41.732Z,16.58
2024-05-09T00:12:43.536Z,16.62
2024-05-09T00:13:45.265Z,16.66
2024-05-09T00:14:47.086Z,16.70
2024-05-09T00:15:48.757Z,16.76
2024-05-09T00:16:50.456Z,16.84
2024-05-09T00:17:52.856Z,16.87
2024-05-09T00:18:54.722Z,16.91
2024-05-09T00:19:56.510Z,16.90
2024-05-09T00:20:58.286Z,16.93
2024-05-09T00:22:00.028Z,16.90
2024-05-09T00:23:01.762Z,16.83
2024-05-09T00:24:03.647Z,16.86
2024-05-09T00:25:06.202Z,16.80
2024-05-09T00:26:07.978Z,16.77
2024-05-09T00:27:12.676Z,16.77
2024-05-09T00:28:14.960Z,16.82
2024-05-09T00:29:16.689Z,16.89
2024-05-09T00:30:27.726Z,16.93
2024-05-09T00:31:34.357Z,16.94
2024-05-09T00:32:36.383Z,16.98
2024-05-09T00:33:38.380Z,16.98
2024-05-09T00:34:40.166Z,16.97
2024-05-09T00:35:42.042Z,16.99
2024-05-09T00:36:43.786Z,17.01
2024-05-09T00:37:45.510Z,17.01
2024-05-09T00:38:47.622Z,17.03
2024-05-09T00:39:49.394Z,17.01
2024-05-09T00:40:51.169Z,16.91
2024-05-09T00:41:52.838Z,16.88
2024-05-09T00:42:54.628Z,16.88
2024-05-09T00:43:56.481Z,16.93
2024-05-09T00:44:58.200Z,16.95
2024-05-09T00:46:02.088Z,16.97
2024-05-09T00:47:04.238Z,16.92
2024-05-09T00:48:08.669Z,16.95
2024-05-09T00:49:12.863Z,16.94
2024-05-09T00:50:19.414Z,16.94
2024-05-09T00:51:24.839Z,16.96
2024-05-09T00:52:28.340Z,16.93
2024-05-09T00:53:30.846Z,16.87
2024-05-09T00:54:33.287Z,16.81
2024-05-09T00:55:36.661Z,16.78
2024-05-09T00:56:38.536Z,16.72
2024-05-09T00:57:40.472Z,16.61
2024-05-09T00:58:43.669Z,16.54
2024-05-09T00:59:45.511Z,16.48
2024-05-09T01:00:50.337Z,16.39
2024-05-09T01:01:52.359Z,16.31
2024-05-09T01:02:54.255Z,16.25
2024-05-09T01:03:56.597Z,16.17
2024-05-09T01:04:58.476Z,16.16
2024-05-09T01:06:00.292Z,16.05
2024-05-09T01:07:02.092Z,16.00
2024-05-09T01:08:04.110Z,15.98
2024-05-09T01:09:06.241Z,15.91
2024-05-09T01:10:14.036Z,15.91
2024-05-09T01:11:22.810Z,15.90
2024-05-09T01:12:25.232Z,15.87
2024-05-09T01:13:26.947Z,15.85
2024-05-09T01:14:28.739Z,15.79
2024-05-09T01:15:30.463Z,15.75
2024-05-09T01:16:32.355Z,15.71
2024-05-09T01:17:34.537Z,15.73
2024-05-09T01:18:36.511Z,15.68
2024-05-09T01:19:38.364Z,15.73
2024-05-09T01:20:43.205Z,15.62
2024-05-09T01:21:46.670Z,15.54
2024-05-09T01:22:48.705Z,15.48
2024-05-09T01:23:50.467Z,15.54
2024-05-09T01:24:52.784Z,15.53
2024-05-09T01:25:54.460Z,15.48
2024-05-09T01:26:56.211Z,15.51
2024-05-09T01:27:57.908Z,15.58
2024-05-09T01:28:59.607Z,15.56
2024-05-09T01:30:01.393Z,15.52
2024-05-09T01:31:03.883Z,15.54
2024-05-09T01:32:06.053Z,15.58
2024-05-09T01:33:10.152Z,15.56
2024-05-09T01:34:13.415Z,15.55
2024-05-09T01:35:15.317Z,15.54
2024-05-09T01:36:17.077Z,15.58
2024-05-09T01:37:18.771Z,15.60
2024-05-09T01:38:20.496Z,15.60
2024-05-09T01:39:22.303Z,15.61
2024-05-09T01:40:33.442Z,15.58
2024-05-09T01:41:39.498Z,15.65
2024-05-09T01:42:41.394Z,15.65
2024-05-09T01:43:43.114Z,15.57
2024-05-09T01:44:45.175Z,15.45
2024-05-09T01:45:46.848Z,15.45
2024-05-09T01:46:48.564Z,15.48
2024-05-09T01:47:50.478Z,15.50
2024-05-09T01:48:52.365Z,15.52
2024-05-09T01:49:54.214Z,15.54
2024-05-09T01:50:55.944Z,15.61
2024-05-09T01:51:57.703Z,15.64
2024-05-09T01:52:59.521Z,15.71
2024-05-09T01:54:02.577Z,15.74
2024-05-09T01:55:07.727Z,15.75
2024-05-09T01:56:10.144Z,15.69
2024-05-09T01:57:11.905Z,15.68
2024-05-09T01:58:13.653Z,15.72
2024-05-09T01:59:15.348Z,15.75
2024-05-09T02:00:22.441Z,15.71
2024-05-09T02:01:55.387Z,15.70
2024-05-09T02:02:54.231Z,15.77
2024-05-09T02:03:56.353Z,15.79
2024-05-09T02:04:58.206Z,15.89
2024-05-09T02:06:00.049Z,15.91
2024-05-09T02:07:01.804Z,15.92
2024-05-09T02:08:04.151Z,15.95
2024-05-09T02:09:05.854Z,15.97
2024-05-09T02:10:13.798Z,16.07
2024-05-09T02:11:18.475Z,16.14
2024-05-09T02:12:20.327Z,16.11
2024-05-09T02:13:22.051Z,16.03
2024-05-09T02:14:23.890Z,16.07
2024-05-09T02:15:25.724Z,16.16
2024-05-09T02:16:27.394Z,16.22
2024-05-09T02:17:29.312Z,16.25
2024-05-09T02:18:31.180Z,16.27
2024-05-09T02:19:33.251Z,16.29
2024-05-09T02:20:36.988Z,16.34
2024-05-09T02:21:40.418Z,16.36
2024-05-09T02:22:42.102Z,16.40
2024-05-09T02:23:43.841Z,16.43
2024-05-09T02:24:45.571Z,16.42
2024-05-09T02:25:47.319Z,16.47
2024-05-09T02:26:49.023Z,16.48
2024-05-09T02:27:51.241Z,16.53
2024-05-09T02:28:52.938Z,16.53
2024-05-09T02:29:54.645Z,16.52
2024-05-09T02:30:56.408Z,16.60
2024-05-09T02:31:58.229Z,16.60
2024-05-09T02:33:00.609Z,16.64
2024-05-09T02:34:02.643Z,16.69
2024-05-09T02:35:04.633Z,16.68
2024-05-09T02:36:07.200Z,16.67
2024-05-09T02:37:08.901Z,16.69
2024-05-09T02:38:10.736Z,16.70
2024-05-09T02:39:12.529Z,16.73
2024-05-09T02:40:15.188Z,16.76
2024-05-09T02:41:23.211Z,16.76
2024-05-09T02:42:25.219Z,16.77
2024-05-09T02:43:26.998Z,16.78
2024-05-09T02:44:28.760Z,16.80
2024-05-09T02:45:30.600Z,16.82
2024-05-09T02:46:32.344Z,16.84
2024-05-09T02:47:34.171Z,16.87
2024-05-09T02:48:36.070Z,16.90
2024-05-09T02:49:37.908Z,16.94
2024-05-09T02:50:40.910Z,16.97
2024-05-09T02:51:42.763Z,17.00
2024-05-09T02:52:44.497Z,16.98
2024-05-09T02:53:46.214Z,16.93
2024-05-09T02:54:47.998Z,16.91
2024-05-09T02:55:49.735Z,16.94
2024-05-09T02:56:51.435Z,16.98
2024-05-09T02:57:53.115Z,16.97
2024-05-09T02:58:56.777Z,16.98
2024-05-09T02:59:58.527Z,16.91
2024-05-09T03:01:00.260Z,16.89
2024-05-09T03:02:02.106Z,16.92
2024-05-09T03:03:04.362Z,16.93
2024-05-09T03:04:06.516Z,16.92
2024-05-09T03:05:08.365Z,16.81
2024-05-09T03:06:10.128Z,16.78
2024-05-09T03:07:11.927Z,16.75
2024-05-09T03:08:13.830Z,16.71
2024-05-09T03:09:15.975Z,16.67
2024-05-09T03:10:22.446Z,16.65
2024-05-09T03:11:30.051Z,16.67
2024-05-09T03:12:31.832Z,16.69
2024-05-09T03:13:33.512Z,16.74
2024-05-09T03:14:35.181Z,16.77
2024-05-09T03:15:37.135Z,16.82
2024-05-09T03:16:39.167Z,16.83
2024-05-09T03:17:41.741Z,16.86
2024-05-09T03:18:43.943Z,16.89
2024-05-09T03:19:45.914Z,16.91
2024-05-09T03:20:47.754Z,16.92
2024-05-09T03:21:49.528Z,16.86
2024-05-09T03:22:53.475Z,16.70
2024-05-09T03:23:56.624Z,16.56
2024-05-09T03:24:58.332Z,16.46
2024-05-09T03:26:00.033Z,16.18
2024-05-09T03:27:01.752Z,16.10
2024-05-09T03:28:03.772Z,16.06
2024-05-09T03:29:05.519Z,16.02
2024-05-09T03:30:09.913Z,16.03
2024-05-09T03:31:12.421Z,16.01
2024-05-09T03:32:14.314Z,16.01
2024-05-09T03:33:19.110Z,15.98
2024-05-09T03:34:22.093Z,15.99
2024-05-09T03:35:23.993Z,15.99
2024-05-09T03:36:25.760Z,15.95
2024-05-09T03:37:27.428Z,15.99
2024-05-09T03:38:29.275Z,16.02
2024-05-09T03:39:31.124Z,16.06
2024-05-09T03:40:32.850Z,16.07
2024-05-09T03:41:34.682Z,16.08
2024-05-09T03:42:40.868Z,16.10
2024-05-09T03:43:43.998Z,16.11
2024-05-09T03:44:45.806Z,16.16
2024-05-09T03:45:49.004Z,16.21
2024-05-09T03:46:50.758Z,16.25
2024-05-09T03:47:52.923Z,16.26
2024-05-09T03:48:54.866Z,16.31
2024-05-09T03:49:56.635Z,16.25
2024-05-09T03:50:58.349Z,16.13
2024-05-09T03:52:05.123Z,16.11
2024-05-09T03:53:10.657Z,16.13
2024-05-09T03:54:12.725Z,16.16
2024-05-09T03:55:14.505Z,16.23
2024-05-09T03:56:16.269Z,16.26
2024-05-09T03:57:17.982Z,16.28
2024-05-09T03:58:19.760Z,16.32
2024-05-09T03:59:21.592Z,16.36
2024-05-09T04:00:31.251Z,16.36
2024-05-09T04:01:39.232Z,16.39
2024-05-09T04:02:48.112Z,16.36
2024-05-09T04:03:50.026Z,16.34
2024-05-09T04:04:51.981Z,16.34
2024-05-09T04:05:53.804Z,16.30
2024-05-09T04:06:55.473Z,16.32
2024-05-09T04:07:57.199Z,16.16
2024-05-09T04:08:58.929Z,16.18
2024-05-09T04:10:00.672Z,16.21
2024-05-09T04:11:02.457Z,16.28
2024-05-09T04:12:07.515Z,16.29
2024-05-09T04:13:10.721Z,16.32
2024-05-09T04:14:12.707Z,16.35
2024-05-09T04:15:15.230Z,16.41
2024-05-09T04:16:16.948Z,16.43
2024-05-09T04:17:18.707Z,16.44
2024-05-09T04:18:20.570Z,16.49
2024-05-09T04:19:22.708Z,16.49
2024-05-09T04:20:33.904Z,16.48
2024-05-09T04:21:41.766Z,16.44
2024-05-09T04:22:43.566Z,16.44
2024-05-09T04:23:45.304Z,16.44
2024-05-09T04:24:47.435Z,16.39
2024-05-09T04:25:49.231Z,16.31
2024-05-09T04:26:50.988Z,16.27
2024-05-09T04:27:55.832Z,16.25
2024-05-09T04:28:58.013Z,16.18
2024-05-09T04:29:59.782Z,16.11
2024-05-09T04:31:01.538Z,16.09
2024-05-09T04:32:07.563Z,16.12
2024-05-09T04:33:12.009Z,16.16
2024-05-09T04:34:15.496Z,16.20
2024-05-09T04:35:20.446Z,16.23
2024-05-09T04:36:22.281Z,16.21
2024-05-09T04:37:25.567Z,16.21
2024-05-09T04:38:27.269Z,16.18
2024-05-09T04:39:29.509Z,16.07
2024-05-09T04:40:34.878Z,16.10
2024-05-09T04:41:38.922Z,16.11
2024-05-09T04:42:41.349Z,16.09
2024-05-09T04:43:43.054Z,16.12
2024-05-09T04:44:44.907Z,16.13
2024-05-09T04:45:46.697Z,16.14
2024-05-09T04:46:48.592Z,16.13
2024-05-09T04:47:50.496Z,16.18
2024-05-09T04:48:53.722Z,16.26
2024-05-09T04:49:55.556Z,16.29
2024-05-09T04:50:57.344Z,16.36
2024-05-09T04:51:59.107Z,16.44
2024-05-09T04:53:00.852Z,16.49
2024-05-09T04:54:02.576Z,16.50
2024-05-09T04:55:04.512Z,16.53
2024-05-09T04:56:07.018Z,16.59
2024-05-09T04:57:08.790Z,16.64
2024-05-09T04:58:11.645Z,16.69
2024-05-09T04:59:13.477Z,16.74
2024-05-09T05:00:21.756Z,16.71
2024-05-09T05:01:30.403Z,16.67
2024-05-09T05:02:32.658Z,16.63
2024-05-09T05:03:34.671Z,16.65
2024-05-09T05:04:36.535Z,16.65
2024-05-09T05:05:40.440Z,16.70
2024-05-09T05:06:42.376Z,16.71
2024-05-09T05:07:44.367Z,16.69
2024-05-09T05:08:46.108Z,16.74
2024-05-09T05:09:47.840Z,16.80
2024-05-09T05:10:49.778Z,16.86
2024-05-09T05:11:52.020Z,16.83
2024-05-09T05:13:12.136Z,16.84
2024-05-09T05:14:13.901Z,16.92
2024-05-09T05:15:15.584Z,16.89
2024-05-09T05:16:17.290Z,16.79
2024-05-09T05:17:19.064Z,16.86
2024-05-09T05:18:22.195Z,16.90
2024-05-09T05:19:24.201Z,16.97
2024-05-09T05:20:32.718Z,17.05
2024-05-09T05:21:35.460Z,17.10
2024-05-09T05:22:37.138Z,17.17
2024-05-09T05:23:40.909Z,17.22
2024-05-09T05:24:43.650Z,17.24
2024-05-09T05:25:48.005Z,17.17
2024-05-09T05:26:49.866Z,16.98
2024-05-09T05:27:52.174Z,17.00
2024-05-09T05:28:54.041Z,16.93
2024-05-09T05:29:55.778Z,16.98
2024-05-09T05:30:57.468Z,16.99
2024-05-09T05:31:59.327Z,17.04
2024-05-09T05:33:01.377Z,17.06
2024-05-09T05:34:03.262Z,17.12
2024-05-09T05:35:05.432Z,17.16
2024-05-09T05:36:08.039Z,17.22
2024-05-09T05:37:09.997Z,17.29
2024-05-09T05:38:11.794Z,17.32
2024-05-09T05:39:13.551Z,17.35
2024-05-09T05:40:25.025Z,17.45
2024-05-09T05:41:33.981Z,17.48
2024-05-09T05:42:35.725Z,17.48
2024-05-09T05:43:37.476Z,17.53
2024-05-09T05:44:39.263Z,17.56
2024-05-09T05:45:41.060Z,17.62
2024-05-09T05:46:42.762Z,17.65
2024-05-09T05:47:44.794Z,17.72
2024-05-09T05:48:46.792Z,17.73
2024-05-09T05:49:48.590Z,17.77
2024-05-09T05:50:50.303Z,17.82
2024-05-09T05:51:52.059Z,17.85
2024-05-09T05:52:53.762Z,17.90
2024-05-09T05:53:55.475Z,17.97
2024-05-09T05:54:57.168Z,18.04
2024-05-09T05:55:58.938Z,18.08
2024-05-09T05:57:00.662Z,18.02
2024-05-09T05:58:02.909Z,18.07
2024-05-09T05:59:04.708Z,18.04
2024-05-09T06:00:09.533Z,18.05
2024-05-09T06:01:11.633Z,18.08
2024-05-09T06:02:16.515Z,18.10
2024-05-09T06:03:18.368Z,18.13
2024-05-09T06:04:20.163Z,18.14
2024-05-09T06:05:22.176Z,18.10
2024-05-09T06:06:24.112Z,18.12
2024-05-09T06:07:25.777Z,18.09
2024-05-09T06:08:30.141Z,18.13
2024-05-09T06:09:32.198Z,18.12
2024-05-09T06:10:38.766Z,18.13
2024-05-09T06:11:43.072Z,18.13
2024-05-09T06:12:44.817Z,18.10
2024-05-09T06:13:46.519Z,18.15
2024-05-09T06:14:48.222Z,18.15
2024-05-09T06:15:49.935Z,18.18
2024-05-09T06:16:56.931Z,18.19
2024-05-09T06:18:00.235Z,18.18
2024-05-09T06:19:02.225Z,18.20
2024-05-09T06:20:05.819Z,18.22
2024-05-09T06:21:10.795Z,18.25
2024-05-09T06:22:12.488Z,18.26
2024-05-09T06:23:14.561Z,18.29
2024-05-09T06:24:16.453Z,18.31
2024-05-09T06:25:18.141Z,18.35
2024-05-09T06:26:19.966Z,18.37
2024-05-09T06:27:21.711Z,18.38
2024-05-09T06:28:23.412Z,18.39
2024-05-09T06:29:25.159Z,18.35
2024-05-09T06:30:36.498Z,18.36
2024-05-09T06:31:42.019Z,18.29
2024-05-09T06:32:44.107Z,18.24
2024-05-09T06:33:46.078Z,18.23
2024-05-09T06:34:48.054Z,18.17
2024-05-09T06:35:50.027Z,18.20
2024-05-09T06:36:51.770Z,18.30
2024-05-09T06:37:53.465Z,18.40
2024-05-09T06:38:55.137Z,18.49
2024-05-09T06:39:56.820Z,18.60
2024-05-09T06:40:58.554Z,18.69
2024-05-09T06:42:00.342Z,18.76
2024-05-09T06:43:02.065Z,18.78
2024-05-09T06:44:03.848Z,18.76
2024-05-09T06:45:05.838Z,18.83
2024-05-09T06:46:07.534Z,18.87
2024-05-09T06:47:09.415Z,18.94
2024-05-09T06:48:11.470Z,19.04
2024-05-09T06:49:13.941Z,19.18
2024-05-09T06:50:23.381Z,19.18
2024-05-09T06:51:28.913Z,19.20
2024-05-09T06:52:30.651Z,19.12
2024-05-09T06:53:32.457Z,19.16
2024-05-09T06:54:34.197Z,19.22
2024-05-09T06:55:37.226Z,19.26
2024-05-09T06:56:40.462Z,19.27
2024-05-09T06:57:43.223Z,19.25
2024-05-09T06:58:45.103Z,19.33
2024-05-09T06:59:46.835Z,19.31
2024-05-09T07:00:48.603Z,19.26
2024-05-09T07:01:50.714Z,19.23
2024-05-09T07:02:52.621Z,19.15
2024-05-09T07:03:54.538Z,19.05
2024-05-09T07:04:56.453Z,19.17
2024-05-09T07:05:58.317Z,19.30
2024-05-09T07:07:00.038Z,19.37
2024-05-09T07:08:01.799Z,19.38
2024-05-09T07:09:03.635Z,19.40
2024-05-09T07:10:07.793Z,19.40
2024-05-09T07:11:11.740Z,19.42
2024-05-09T07:12:13.685Z,19.44
2024-05-09T07:13:16.065Z,19.43
2024-05-09T07:14:17.827Z,19.28
2024-05-09T07:15:19.568Z,19.25
2024-05-09T07:16:21.236Z,19.14
2024-05-09T07:17:23.056Z,19.16
2024-05-09T07:18:25.148Z,19.24
2024-05-09T07:19:27.193Z,19.30
2024-05-09T07:20:34.440Z,19.21
2024-05-09T07:21:36.852Z,19.09
2024-05-09T07:22:38.637Z,18.99
2024-05-09T07:23:40.987Z,18.85
2024-05-09T07:24:43.531Z,18.80
2024-05-09T07:25:45.401Z,18.84
2024-05-09T07:26:47.289Z,18.81
2024-05-09T07:27:49.010Z,18.83
2024-05-09T07:28:50.820Z,18.69
2024-05-09T07:29:52.741Z,18.70
2024-05-09T07:30:54.419Z,18.73
2024-05-09T07:31:56.309Z,18.84
2024-05-09T07:32:58.297Z,18.98
2024-05-09T07:34:00.789Z,19.15
2024-05-09T07:35:02.622Z,19.26
2024-05-09T07:36:04.484Z,19.39
2024-05-09T07:37:12.686Z,19.47
2024-05-09T07:38:14.714Z,19.52
2024-05-09T07:39:16.573Z,19.56
2024-05-09T07:40:28.424Z,19.54
2024-05-09T07:41:37.510Z,19.49
2024-05-09T07:42:39.335Z,19.44
2024-05-09T07:43:41.062Z,19.39
2024-05-09T07:44:43.008Z,19.32
2024-05-09T07:45:52.090Z,19.28
2024-05-09T07:54:29.473Z,19.20
2024-05-09T07:55:31.632Z,19.14
2024-05-09T07:56:34.390Z,19.05
2024-05-09T07:57:37.334Z,18.99
2024-05-09T07:58:39.541Z,18.92
2024-05-09T07:59:41.284Z,18.79
2024-05-09T08:00:43.139Z,18.79
2024-05-09T08:01:45.069Z,18.83
2024-05-09T08:02:46.860Z,18.77
2024-05-09T08:03:48.896Z,18.85
2024-05-09T08:04:50.813Z,18.94
2024-05-09T08:05:52.763Z,18.94
2024-05-09T08:06:54.577Z,18.98
2024-05-09T08:07:56.353Z,18.96
2024-05-09T08:09:05.459Z,19.02
2024-05-09T08:10:12.835Z,19.07
2024-05-09T08:11:14.992Z,19.10
2024-05-09T08:12:16.983Z,19.20
2024-05-09T08:13:18.826Z,19.30
2024-05-09T08:14:20.686Z,19.43
2024-05-09T08:15:22.403Z,19.50
2024-05-09T08:16:24.283Z,19.59
2024-05-09T08:17:26.103Z,19.63
2024-05-09T08:18:28.210Z,19.67
2024-05-09T08:19:30.412Z,19.78
2024-05-09T08:20:35.234Z,19.91
2024-05-09T08:21:37.392Z,20.04
2024-05-09T08:22:39.102Z,20.15
2024-05-09T08:23:40.795Z,20.24
2024-05-09T08:24:42.859Z,20.34
2024-05-09T08:25:44.581Z,20.39
2024-05-09T08:26:46.270Z,20.49
2024-05-09T08:27:48.026Z,20.56
2024-05-09T08:28:49.730Z,20.45
2024-05-09T08:30:53.257Z,20.51
2024-05-09T08:31:56.938Z,20.73
2024-05-09T08:32:58.782Z,20.98
2024-05-09T08:34:00.747Z,21.24
2024-05-09T08:35:02.669Z,21.41
2024-05-09T08:36:04.485Z,21.60
2024-05-09T08:37:13.037Z,21.70
2024-05-09T08:38:21.121Z,21.79
2024-05-09T08:39:22.814Z,21.88
2024-05-09T08:40:31.096Z,21.91
2024-05-09T08:41:42.322Z,22.01
2024-05-09T08:42:49.922Z,22.02
2024-05-09T08:43:51.779Z,22.12
2024-05-09T08:44:53.521Z,22.22
2024-05-09T08:45:56.593Z,22.29
2024-05-09T08:46:59.589Z,22.39
2024-05-09T08:48:07.772Z,22.38
2024-05-09T08:49:10.381Z,22.24
2024-05-09T08:50:28.562Z,22.20
2024-05-09T08:51:37.653Z,22.10
2024-05-09T08:52:39.396Z,22.15
2024-05-09T08:53:41.223Z,22.29
2024-05-09T08:54:43.089Z,22.41
2024-05-09T08:55:46.601Z,22.54
2024-05-09T08:56:49.418Z,22.58
2024-05-09T08:57:52.413Z,22.44
2024-05-09T08:58:59.955Z,22.19
2024-05-09T09:00:07.886Z,21.92
2024-05-09T09:01:13.489Z,21.82
2024-05-09T09:02:15.795Z,21.70
2024-05-09T09:03:19.686Z,21.59
2024-05-09T09:04:23.537Z,21.45
2024-05-09T09:05:31.075Z,21.46
2024-05-09T09:06:34.065Z,21.27
2024-05-09T09:07:38.750Z,21.21
2024-05-09T09:08:40.759Z,20.93
2024-05-09T09:09:45.294Z,20.67
2024-05-09T09:10:47.856Z,20.55
2024-05-09T09:11:49.691Z,20.46
2024-05-09T09:12:57.940Z,20.60
2024-05-09T09:13:59.637Z,20.59
2024-05-09T09:15:01.373Z,20.62
2024-05-09T09:16:03.767Z,20.62
2024-05-09T09:17:15.663Z,20.72
2024-05-09T09:18:18.465Z,20.80
2024-05-09T09:19:23.210Z,20.91
2024-05-09T09:20:35.657Z,20.96
2024-05-09T09:21:38.757Z,20.99
2024-05-09T09:22:40.471Z,21.07
2024-05-09T09:23:42.172Z,21.11
2024-05-09T09:24:43.923Z,21.13
2024-05-09T09:25:45.891Z,21.22
2024-05-09T09:26:47.585Z,21.17
2024-05-09T09:27:49.371Z,21.11
2024-05-09T09:28:51.887Z,21.18
2024-05-09T09:29:53.571Z,21.26
2024-05-09T09:31:01.715Z,21.22
2024-05-09T09:32:08.513Z,21.22
2024-05-09T09:33:10.600Z,21.14
2024-05-09T09:34:12.630Z,21.14
2024-05-09T09:35:14.524Z,21.23
2024-05-09T09:36:18.502Z,21.26
2024-05-09T09:37:26.583Z,21.28
2024-05-09T09:38:31.888Z,21.32
2024-05-09T09:39:35.178Z,21.36
2024-05-09T09:40:42.841Z,21.34
2024-05-09T09:41:49.015Z,21.29
2024-05-09T09:42:55.941Z,21.28
2024-05-09T09:43:58.189Z,21.28
2024-05-09T09:45:04.893Z,21.29
2024-05-09T09:46:12.319Z,21.29
2024-05-09T09:47:15.957Z,21.31
2024-05-09T09:48:19.558Z,21.29
2024-05-09T09:49:23.555Z,21.38
2024-05-09T09:50:33.337Z,21.32
2024-05-09T09:51:37.160Z,21.34
2024-05-09T09:52:39.154Z,21.42
2024-05-09T09:53:42.950Z,21.45
2024-05-09T09:54:45.740Z,21.51
2024-05-09T09:55:48.438Z,21.54
2024-05-09T09:56:51.502Z,21.56
2024-05-09T09:57:56.165Z,21.52
2024-05-09T09:58:59.991Z,21.50
2024-05-09T10:00:01.815Z,21.58
2024-05-09T10:01:03.745Z,21.63
2024-05-09T10:02:05.698Z,21.67
2024-05-09T10:03:07.506Z,21.65
2024-05-09T10:04:10.572Z,21.69
2024-05-09T10:05:12.643Z,21.77
2024-05-09T10:06:17.716Z,21.75
2024-05-09T10:07:21.569Z,21.76
2024-05-09T10:08:24.030Z,21.91
2024-05-09T10:09:26.316Z,21.92
2024-05-09T10:10:33.099Z,21.94
2024-05-09T10:11:41.923Z,21.96
2024-05-09T10:13:07.751Z,22.04
2024-05-09T10:14:10.040Z,22.07
2024-05-09T10:15:11.930Z,22.14
2024-05-09T10:16:21.586Z,22.18
2024-05-09T10:17:23.460Z,22.23
2024-05-09T10:18:36.398Z,22.25
2024-05-09T10:19:38.422Z,22.34
2024-05-09T10:20:44.779Z,22.36
2024-05-09T10:21:47.134Z,22.52
2024-05-09T10:22:50.509Z,22.69
2024-05-09T10:24:00.035Z,22.86
2024-05-09T10:25:06.062Z,22.90
2024-05-09T10:26:07.826Z,22.92
2024-05-09T10:27:09.598Z,22.98
2024-05-09T10:28:12.127Z,23.10
2024-05-09T10:29:14.917Z,22.99
2024-05-09T10:30:29.762Z,22.82
2024-05-09T10:31:41.034Z,22.74
2024-05-09T10:32:44.925Z,22.79
2024-05-09T10:33:52.069Z,22.79
2024-05-09T10:35:19.354Z,22.87
2024-05-09T10:36:23.125Z,22.94
2024-05-09T10:37:32.289Z,22.97
2024-05-09T10:38:34.235Z,22.91
2024-05-09T10:39:39.655Z,22.63
2024-05-09T10:40:41.866Z,22.60
2024-05-09T10:41:43.816Z,22.67
2024-05-09T10:42:45.545Z,22.81
2024-05-09T10:43:47.826Z,22.93
2024-05-09T10:44:49.537Z,23.10
2024-05-09T10:45:52.052Z,23.33
2024-05-09T10:46:55.226Z,23.51
2024-05-09T10:47:57.218Z,23.67
2024-05-09T10:49:01.012Z,23.72
2024-05-09T10:50:07.866Z,23.75
2024-05-09T10:51:13.326Z,23.75
2024-05-09T10:52:15.505Z,23.72
2024-05-09T10:53:19.225Z,23.66
2024-05-09T10:54:20.942Z,23.68
2024-05-09T10:55:22.885Z,23.70
2024-05-09T10:56:25.607Z,23.49
2024-05-09T10:57:37.592Z,23.42
2024-05-09T10:58:39.663Z,23.36
2024-05-09T10:59:43.162Z,23.31
2024-05-09T11:00:45.175Z,23.17
2024-05-09T11:01:47.095Z,23.28
2024-05-09T11:02:48.900Z,23.22
2024-05-09T11:03:51.347Z,23.21
2024-05-09T11:04:53.377Z,23.19
2024-05-09T11:05:57.612Z,23.15
2024-05-09T11:07:05.784Z,23.13
2024-05-09T11:08:08.312Z,23.15
2024-05-09T11:09:10.493Z,23.25
2024-05-09T11:10:14.473Z,23.38
2024-05-09T11:11:16.780Z,23.50
2024-05-09T11:12:20.608Z,23.56
2024-05-09T11:13:30.663Z,23.60
2024-05-09T11:14:32.831Z,23.70
2024-05-09T11:15:43.837Z,23.69
2024-05-09T11:16:45.618Z,23.75
2024-05-09T11:17:47.471Z,23.63
2024-05-09T11:18:57.691Z,23.41
2024-05-09T11:20:00.497Z,23.08
2024-05-09T11:21:02.403Z,22.97
2024-05-09T11:22:05.088Z,22.95
2024-05-09T11:23:08.014Z,22.99
2024-05-09T11:24:11.521Z,23.04
2024-05-09T11:25:13.651Z,23.09
2024-05-09T11:26:19.278Z,23.13
2024-05-09T11:27:21.162Z,23.12
2024-05-09T11:28:23.898Z,23.20
2024-05-09T11:29:37.193Z,23.39
2024-05-09T11:30:38.980Z,23.37
2024-05-09T11:31:47.678Z,23.34
2024-05-09T11:32:50.008Z,23.35
2024-05-09T11:33:54.472Z,23.34
2024-05-09T11:34:56.340Z,23.33
2024-05-09T11:35:58.410Z,23.35
2024-05-09T11:37:00.737Z,23.30
2024-05-09T11:38:02.623Z,23.36
2024-05-09T11:39:04.428Z,23.37
2024-05-09T11:40:11.642Z,23.39
2024-05-09T11:41:19.004Z,23.41
2024-05-09T11:42:22.546Z,23.41
2024-05-09T11:43:24.401Z,23.39
2024-05-09T11:44:27.260Z,23.40
2024-05-09T11:45:29.532Z,23.46
2024-05-09T11:46:31.219Z,23.49
2024-05-09T11:47:32.979Z,23.46
2024-05-09T11:48:34.990Z,23.31
2024-05-09T11:49:37.083Z,23.28
2024-05-09T11:50:39.310Z,23.30
2024-05-09T11:51:41.313Z,23.35
2024-05-09T11:52:43.066Z,23.46
2024-05-09T11:53:44.872Z,23.48
2024-05-09T11:54:46.736Z,23.50
2024-05-09T11:55:48.692Z,23.54
2024-05-09T11:56:51.778Z,23.55
2024-05-09T11:57:53.551Z,23.51
2024-05-09T11:58:55.344Z,23.49
2024-05-09T11:59:57.479Z,23.49
2024-05-09T12:00:59.339Z,23.52
2024-05-09T12:02:02.657Z,23.43
2024-05-09T12:03:05.776Z,23.44
2024-05-09T12:04:08.882Z,23.47
2024-05-09T12:05:11.252Z,23.50
2024-05-09T12:06:13.081Z,23.54
2024-05-09T12:07:15.029Z,23.57
2024-05-09T12:08:16.813Z,23.58
2024-05-09T12:09:18.502Z,23.60
2024-05-09T12:10:26.049Z,23.70
2024-05-09T12:11:33.045Z,23.80
2024-05-09T12:12:37.380Z,23.85
2024-05-09T12:13:39.995Z,23.90
2024-05-09T12:14:42.477Z,23.92
2024-05-09T12:15:44.258Z,23.91
2024-05-09T12:16:46.124Z,23.98
2024-05-09T12:17:50.920Z,23.97
2024-05-09T12:18:52.977Z,24.00
2024-05-09T12:19:54.759Z,24.06
2024-05-09T12:20:56.591Z,24.15
2024-05-09T12:21:58.422Z,24.17
2024-05-09T12:23:00.200Z,24.19
2024-05-09T12:24:01.938Z,24.17
2024-05-09T12:25:05.012Z,24.04
2024-05-09T12:26:06.746Z,23.74
2024-05-09T12:27:08.566Z,23.72
2024-05-09T12:28:10.426Z,23.75
2024-05-09T12:29:12.164Z,23.71
2024-05-09T12:30:20.788Z,23.73
2024-05-09T12:31:30.485Z,23.78
2024-05-09T12:32:32.407Z,23.77
2024-05-09T12:33:34.385Z,23.80
2024-05-09T12:34:36.235Z,23.80
2024-05-09T12:35:38.136Z,23.83
2024-05-09T12:36:40.020Z,23.78
2024-05-09T12:37:41.794Z,23.78
2024-05-09T12:38:43.591Z,23.71
2024-05-09T12:39:45.334Z,23.63
2024-05-09T12:40:47.157Z,23.68
2024-05-09T12:41:48.870Z,23.71
2024-05-09T12:42:50.601Z,23.70
2024-05-09T12:43:52.382Z,23.65
2024-05-09T12:44:54.094Z,23.58
2024-05-09T12:45:56.014Z,23.56
2024-05-09T12:46:57.715Z,23.52
2024-05-09T12:47:59.594Z,23.52
2024-05-09T12:49:01.656Z,23.48
2024-05-09T12:50:06.388Z,23.46
2024-05-09T12:51:09.950Z,23.35
2024-05-09T12:52:11.732Z,23.33
2024-05-09T12:53:13.532Z,23.32
2024-05-09T12:54:15.330Z,23.32
2024-05-09T12:55:17.170Z,23.24
2024-05-09T12:56:18.937Z,23.18
2024-05-09T12:57:21.847Z,23.13
2024-05-09T12:58:24.069Z,22.96
2024-05-09T12:59:26.289Z,22.88
2024-05-09T13:00:33.553Z,22.90
2024-05-09T13:01:36.213Z,22.83
2024-05-09T13:02:38.039Z,22.74
2024-05-09T13:03:40.122Z,22.70
2024-05-09T13:04:42.020Z,22.62
2024-05-09T13:05:47.142Z,22.61
2024-05-09T13:06:49.456Z,22.59
2024-05-09T13:07:51.295Z,22.57
2024-05-09T13:08:53.065Z,22.60
2024-05-09T13:09:54.777Z,22.55
2024-05-09T13:10:56.653Z,22.60
2024-05-09T13:11:58.402Z,22.57
2024-05-09T13:13:01.786Z,22.46
2024-05-09T13:14:03.955Z,22.49
2024-05-09T13:15:05.958Z,22.52
2024-05-09T13:16:07.889Z,22.37
2024-05-09T13:17:09.700Z,22.23
2024-05-09T13:18:11.464Z,21.98
2024-05-09T13:19:13.341Z,21.79
2024-05-09T13:20:22.995Z,21.54
2024-05-09T13:21:31.068Z,21.31
2024-05-09T13:22:32.799Z,21.10
2024-05-09T13:23:34.494Z,21.00
2024-05-09T13:24:36.231Z,20.90
2024-05-09T13:25:38.311Z,20.88
2024-05-09T13:26:40.121Z,20.75
2024-05-09T13:27:41.864Z,20.71
2024-05-09T13:28:43.604Z,20.62
2024-05-09T13:29:45.302Z,20.57
2024-05-09T13:30:47.243Z,20.52
2024-05-09T13:31:49.006Z,20.49
2024-05-09T13:32:51.037Z,20.47
2024-05-09T13:33:52.964Z,20.42
2024-05-09T13:34:55.028Z,20.36
2024-05-09T13:35:56.842Z,20.34
2024-05-09T13:36:59.020Z,20.34
2024-05-09T13:38:01.914Z,20.34
2024-05-09T13:39:03.975Z,20.37
2024-05-09T13:40:07.374Z,20.31
2024-05-09T13:41:09.507Z,20.34